Time;durP1;ratioP1;P1;durP2;ratioP2;P2;SDS_P1;SDS_P2;PMS_P1;PMS_P2;Temp;Humidity;BMP_temperature;BMP_pressure;BME280_temperature;BME280_humidity;BME280_pressure;Samples;Min_cycle;Max_cycle;Signal;HPM_P1;HPM_P2
2023/10/31 00:02:20;;;;;;;17.15;1.42;;;10.50;99.90;;;;;;5069551;28;20062;-71
2023/10/31 00:04:45;;;;;;;15.13;1.20;;;10.50;99.90;;;;;;5069741;28;20044;-72
2023/10/31 00:07:11;;;;;;;21.30;1.88;;;10.40;99.90;;;;;;5069632;28;20050;-70
2023/10/31 00:09:39;;;;;;;10.23;1.40;;;10.40;99.90;;;;;;5035559;28;20125;-71
2023/10/31 00:12:05;;;;;;;10.10;1.30;;;10.50;99.90;;;;;;5068102;28;20040;-69
2023/10/31 00:14:31;;;;;;;15.63;1.70;;;10.70;99.90;;;;;;5069579;28;20044;-70
2023/10/31 00:16:57;;;;;;;16.38;1.58;;;10.40;99.90;;;;;;5067385;28;20404;-71
2023/10/31 00:19:23;;;;;;;13.32;1.67;;;10.60;99.90;;;;;;5050009;28;20829;-70
2023/10/31 00:21:49;;;;;;;12.85;1.60;;;10.50;99.90;;;;;;5068828;28;20055;-69
2023/10/31 00:24:14;;;;;;;9.68;1.60;;;10.40;99.90;;;;;;5050584;28;20036;-71
2023/10/31 00:26:40;;;;;;;12.60;1.52;;;10.60;99.90;;;;;;5067503;28;20054;-70
2023/10/31 00:29:06;;;;;;;14.30;1.70;;;10.50;99.90;;;;;;5069078;28;20059;-69
2023/10/31 00:31:34;;;;;;;17.08;1.35;;;10.70;99.90;;;;;;5065647;28;20066;-69
2023/10/31 00:34:01;;;;;;;14.57;1.10;;;10.70;99.90;;;;;;5065085;28;20114;-68
2023/10/31 00:36:27;;;;;;;15.48;1.75;;;10.70;99.90;;;;;;5068127;28;20048;-72
2023/10/31 00:38:52;;;;;;;14.55;1.30;;;10.50;99.90;;;;;;5067687;28;20463;-70
2023/10/31 00:41:18;;;;;;;15.30;1.60;;;10.50;99.90;;;;;;5066472;28;20044;-68
2023/10/31 00:43:44;;;;;;;11.30;1.35;;;10.70;99.90;;;;;;5066556;28;20052;-72
2023/10/31 00:46:09;;;;;;;12.85;1.73;;;10.70;99.90;;;;;;5068097;28;20051;-71
2023/10/31 00:48:36;;;;;;;17.02;2.17;;;10.70;99.90;;;;;;5067207;28;20972;-70
2023/10/31 00:51:05;;;;;;;17.35;2.67;;;10.60;99.90;;;;;;5051891;28;20670;-70
2023/10/31 00:53:31;;;;;;;20.65;3.00;;;10.50;99.90;;;;;;5068344;28;20036;-70
2023/10/31 00:55:57;;;;;;;15.43;2.40;;;10.50;99.90;;;;;;5068552;28;20676;-68
2023/10/31 00:58:23;;;;;;;16.20;2.38;;;10.50;99.90;;;;;;5067824;28;20044;-69
2023/10/31 01:00:49;;;;;;;24.85;2.60;;;10.50;99.90;;;;;;5067488;28;20088;-69
2023/10/31 01:03:15;;;;;;;19.35;3.10;;;10.70;99.90;;;;;;5069053;28;20040;-72
2023/10/31 01:05:40;;;;;;;18.58;2.88;;;10.70;99.90;;;;;;5068099;28;20725;-69
2023/10/31 01:08:06;;;;;;;26.73;3.80;;;10.50;99.90;;;;;;5067233;28;20559;-69
2023/10/31 01:10:32;;;;;;;18.80;2.92;;;10.60;99.90;;;;;;5067102;28;20539;-76
2023/10/31 01:12:57;;;;;;;27.00;3.30;;;10.70;99.90;;;;;;5068819;28;20040;-70
2023/10/31 01:15:23;;;;;;;18.67;2.40;;;10.50;99.90;;;;;;5068196;28;20127;-69
2023/10/31 01:17:49;;;;;;;21.80;2.90;;;10.60;99.90;;;;;;5066466;28;20448;-72
2023/10/31 01:20:14;;;;;;;27.48;3.15;;;10.50;99.90;;;;;;5051905;28;20766;-70
2023/10/31 01:22:40;;;;;;;25.80;3.42;;;10.50;99.90;;;;;;5067876;28;20039;-70
2023/10/31 01:25:06;;;;;;;18.42;2.30;;;10.50;99.90;;;;;;5068360;28;20823;-70
2023/10/31 01:27:32;;;;;;;18.38;3.38;;;10.70;99.90;;;;;;5068644;28;20051;-68
2023/10/31 01:29:57;;;;;;;24.70;3.08;;;10.60;99.90;;;;;;5049116;28;20056;-68
2023/10/31 01:32:23;;;;;;;18.15;2.63;;;10.70;99.90;;;;;;5069954;28;20487;-67
2023/10/31 01:34:49;;;;;;;21.45;3.10;;;10.60;99.90;;;;;;5069548;28;20039;-69
2023/10/31 01:37:15;;;;;;;19.92;3.70;;;10.50;99.90;;;;;;5070543;28;20087;-67
2023/10/31 01:39:41;;;;;;;19.02;2.67;;;10.80;99.90;;;;;;5052414;28;20079;-70
2023/10/31 01:42:06;;;;;;;17.52;2.50;;;10.50;99.90;;;;;;5070292;28;20139;-68
2023/10/31 01:44:32;;;;;;;10.93;2.10;;;10.70;99.90;;;;;;5069249;28;20036;-68
2023/10/31 01:46:58;;;;;;;16.08;2.80;;;10.50;99.90;;;;;;5068351;28;20103;-69
2023/10/31 01:49:24;;;;;;;16.23;2.78;;;10.60;99.90;;;;;;5068289;28;20056;-69
2023/10/31 01:51:50;;;;;;;13.07;2.58;;;10.40;99.90;;;;;;5084294;28;20766;-68
2023/10/31 01:54:17;;;;;;;13.55;2.47;;;10.60;99.90;;;;;;5072825;28;20040;-70
2023/10/31 01:56:43;;;;;;;12.27;2.58;;;10.40;99.90;;;;;;5073065;28;20048;-71
2023/10/31 01:59:09;;;;;;;13.68;2.38;;;10.70;99.90;;;;;;5074095;28;20078;-70
2023/10/31 02:01:41;;;;;;;13.48;2.53;;;10.30;99.90;;;;;;5071505;28;20040;-67
2023/10/31 02:04:07;;;;;;;11.10;2.15;;;10.30;99.90;;;;;;5070956;28;20598;-68
2023/10/31 02:06:33;;;;;;;13.18;2.30;;;10.30;99.90;;;;;;5070597;28;20048;-68
2023/10/31 02:08:58;;;;;;;9.07;2.67;;;10.50;99.90;;;;;;5050393;28;20052;-67
2023/10/31 02:11:24;;;;;;;7.53;3.05;;;10.30;99.90;;;;;;5072048;28;20040;-68
2023/10/31 02:13:50;;;;;;;5.18;1.58;;;10.50;99.90;;;;;;5071967;28;21350;-72
2023/10/31 02:16:15;;;;;;;9.77;2.08;;;10.20;99.90;;;;;;5073341;28;20117;-69
2023/10/31 02:18:42;;;;;;;8.43;1.85;;;10.60;99.90;;;;;;5070126;28;20044;-68
2023/10/31 02:21:08;;;;;;;10.48;1.40;;;10.20;99.90;;;;;;5070427;28;20816;-72
2023/10/31 02:23:33;;;;;;;8.30;1.10;;;10.20;99.90;;;;;;5070496;28;20604;-66
2023/10/31 02:25:59;;;;;;;8.63;0.98;;;10.30;99.90;;;;;;5070213;28;20044;-68
2023/10/31 02:28:28;;;;;;;11.15;1.08;;;10.20;99.90;;;;;;5070987;28;20077;-68
2023/10/31 02:30:54;;;;;;;14.75;1.35;;;10.10;99.90;;;;;;5070431;28;20097;-67
2023/10/31 02:33:21;;;;;;;14.27;1.50;;;10.40;99.90;;;;;;5070048;28;20483;-71
2023/10/31 02:35:46;;;;;;;13.80;1.45;;;10.10;99.90;;;;;;5051911;28;20936;-72
2023/10/31 02:38:12;;;;;;;13.60;1.48;;;10.30;99.90;;;;;;5070142;28;20372;-69
2023/10/31 02:40:38;;;;;;;11.98;1.35;;;10.10;99.90;;;;;;5068953;28;20047;-69
2023/10/31 02:43:03;;;;;;;8.50;1.15;;;10.00;99.90;;;;;;5070174;28;20055;-71
2023/10/31 02:45:29;;;;;;;11.52;1.40;;;10.20;99.90;;;;;;5070247;28;20036;-70
2023/10/31 02:47:55;;;;;;;8.98;1.10;;;9.90;99.90;;;;;;5069863;28;20051;-69
2023/10/31 02:50:21;;;;;;;11.88;1.15;;;10.00;99.90;;;;;;5070015;28;20040;-69
2023/10/31 02:52:47;;;;;;;8.43;0.70;;;9.90;99.90;;;;;;5068654;28;20815;-69
2023/10/31 02:55:12;;;;;;;8.93;0.82;;;9.90;99.90;;;;;;5069318;28;20075;-68
2023/10/31 02:57:38;;;;;;;8.80;0.85;;;9.90;99.90;;;;;;5069241;28;20101;-69
2023/10/31 03:00:04;;;;;;;7.65;0.75;;;10.20;99.90;;;;;;5070041;28;20036;-67
2023/10/31 03:02:30;;;;;;;7.32;0.85;;;10.10;99.90;;;;;;5069958;28;20048;-69
2023/10/31 03:04:56;;;;;;;9.15;1.35;;;10.20;99.90;;;;;;5068799;28;20040;-68
2023/10/31 03:07:21;;;;;;;8.30;1.60;;;10.30;99.90;;;;;;5069579;28;20036;-69
2023/10/31 03:09:47;;;;;;;10.90;2.00;;;10.40;99.90;;;;;;5068379;28;20130;-68
2023/10/31 03:12:13;;;;;;;9.75;2.10;;;10.30;99.90;;;;;;5069830;28;20044;-69
2023/10/31 03:14:38;;;;;;;15.77;2.53;;;10.30;99.90;;;;;;5068582;28;20056;-69
2023/10/31 03:17:04;;;;;;;10.00;2.60;;;10.40;99.90;;;;;;5069539;28;20628;-68
2023/10/31 03:19:30;;;;;;;7.75;1.83;;;10.00;99.90;;;;;;5067567;28;20055;-69
2023/10/31 03:21:56;;;;;;;10.43;2.00;;;10.00;99.90;;;;;;5068154;28;21748;-69
2023/10/31 03:24:22;;;;;;;9.63;1.90;;;10.40;99.90;;;;;;5069394;28;20031;-68
2023/10/31 03:26:47;;;;;;;10.32;2.15;;;10.00;99.90;;;;;;5068664;28;20128;-68
2023/10/31 03:29:13;;;;;;;12.10;2.17;;;10.00;99.90;;;;;;5049074;28;20105;-69
2023/10/31 03:31:39;;;;;;;10.82;1.90;;;10.40;99.90;;;;;;5051046;28;20044;-72
2023/10/31 03:34:04;;;;;;;10.50;1.83;;;10.40;99.90;;;;;;5069439;28;20086;-70
2023/10/31 03:36:30;;;;;;;14.07;1.60;;;10.10;99.90;;;;;;5068188;28;20036;-69
2023/10/31 03:38:56;;;;;;;9.18;1.27;;;10.10;99.90;;;;;;5068235;28;20588;-71
2023/10/31 03:41:21;;;;;;;6.93;0.85;;;10.20;99.90;;;;;;5069365;28;20040;-69
2023/10/31 03:43:47;;;;;;;13.52;1.77;;;10.00;99.90;;;;;;5067819;28;20055;-71
2023/10/31 03:46:13;;;;;;;8.82;0.90;;;10.00;99.90;;;;;;5066956;28;20398;-69
2023/10/31 03:48:38;;;;;;;9.85;1.52;;;10.10;99.90;;;;;;5068872;28;20674;-69
2023/10/31 03:51:04;;;;;;;14.65;1.73;;;10.00;99.90;;;;;;5069190;28;20123;-68
2023/10/31 03:53:30;;;;;;;10.25;1.88;;;10.40;99.90;;;;;;5067437;28;20628;-69
2023/10/31 03:55:58;;;;;;;14.48;1.60;;;10.20;99.90;;;;;;5068751;28;20044;-69
2023/10/31 03:58:24;;;;;;;10.07;1.63;;;10.30;99.90;;;;;;5068228;28;20059;-70
2023/10/31 04:00:49;;;;;;;15.77;2.00;;;10.40;99.90;;;;;;5067967;28;20079;-69
2023/10/31 04:03:15;;;;;;;14.05;1.70;;;10.20;99.90;;;;;;5068638;28;20043;-68
2023/10/31 04:05:41;;;;;;;22.05;1.95;;;10.30;99.90;;;;;;5066893;28;20055;-69
2023/10/31 04:08:06;;;;;;;12.27;1.70;;;10.50;99.90;;;;;;5068403;28;20051;-70
2023/10/31 04:10:32;;;;;;;13.95;1.67;;;10.20;99.90;;;;;;5068792;28;20050;-68
2023/10/31 04:12:58;;;;;;;11.68;1.38;;;10.40;99.90;;;;;;5068874;28;20056;-68
2023/10/31 04:15:24;;;;;;;16.85;1.80;;;10.20;99.90;;;;;;5066378;28;20055;-68
2023/10/31 04:17:49;;;;;;;11.38;1.30;;;10.30;99.90;;;;;;5068515;28;20048;-68
2023/10/31 04:20:15;;;;;;;9.15;1.52;;;10.60;99.90;;;;;;5067818;28;20715;-68
2023/10/31 04:22:41;;;;;;;12.35;1.58;;;10.50;99.90;;;;;;5068059;28;20043;-70
2023/10/31 04:25:07;;;;;;;11.57;2.28;;;10.40;99.90;;;;;;5067424;28;20974;-69
2023/10/31 04:27:32;;;;;;;12.80;2.45;;;10.20;99.90;;;;;;5066902;28;20127;-70
2023/10/31 04:29:58;;;;;;;10.63;3.17;;;10.50;99.90;;;;;;5067182;28;20606;-68
2023/10/31 04:32:24;;;;;;;14.75;3.58;;;10.30;99.90;;;;;;5066554;28;20561;-72
2023/10/31 04:34:49;;;;;;;11.25;4.07;;;10.60;99.90;;;;;;5067522;28;20722;-68
2023/10/31 04:37:15;;;;;;;15.18;5.03;;;10.30;99.90;;;;;;5047933;28;20551;-69
2023/10/31 04:39:41;;;;;;;12.90;4.15;;;10.60;99.90;;;;;;5067893;28;20097;-69
2023/10/31 04:42:06;;;;;;;11.75;3.63;;;10.10;99.90;;;;;;5065763;28;20082;-69
2023/10/31 04:44:32;;;;;;;9.73;2.75;;;10.50;99.90;;;;;;5068269;28;20065;-69
2023/10/31 04:46:57;;;;;;;9.95;2.00;;;10.50;99.90;;;;;;5066256;28;20051;-72
2023/10/31 04:49:23;;;;;;;8.05;1.75;;;10.40;99.90;;;;;;5066882;28;20043;-69
2023/10/31 04:51:49;;;;;;;12.15;2.22;;;10.20;99.90;;;;;;5067885;28;20048;-68
2023/10/31 04:54:14;;;;;;;14.10;2.47;;;9.90;99.90;;;;;;5068147;28;20036;-69
2023/10/31 04:56:40;;;;;;;11.23;2.78;;;10.00;99.90;;;;;;5033615;28;20163;-70
2023/10/31 04:59:06;;;;;;;9.60;3.08;;;10.50;99.90;;;;;;5068034;28;20687;-70
2023/10/31 05:01:31;;;;;;;12.27;3.28;;;10.50;99.90;;;;;;5068501;28;20079;-72
2023/10/31 05:03:57;;;;;;;12.15;3.33;;;10.00;99.90;;;;;;5067325;28;20051;-69
2023/10/31 05:06:23;;;;;;;12.23;2.95;;;10.10;99.90;;;;;;5050268;28;20654;-68
2023/10/31 05:08:49;;;;;;;12.40;3.13;;;10.00;99.90;;;;;;5066639;28;20046;-69
2023/10/31 05:11:18;;;;;;;7.07;3.03;;;10.50;99.90;;;;;;5047888;28;20070;-67
2023/10/31 05:13:45;;;;;;;9.32;3.80;;;10.00;99.90;;;;;;5066494;28;20527;-68
2023/10/31 05:16:11;;;;;;;8.82;3.65;;;10.30;99.90;;;;;;5067805;28;20036;-69
2023/10/31 05:18:38;;;;;;;10.18;4.03;;;10.40;99.90;;;;;;5066280;28;20127;-69
2023/10/31 05:21:04;;;;;;;10.20;3.28;;;10.00;99.90;;;;;;5048480;28;20048;-70
2023/10/31 05:23:30;;;;;;;8.07;3.45;;;10.00;99.90;;;;;;5066963;28;20044;-69
2023/10/31 05:25:55;;;;;;;9.00;3.08;;;10.00;99.90;;;;;;5067255;28;20043;-68
2023/10/31 05:28:21;;;;;;;7.13;2.65;;;10.50;99.90;;;;;;5067144;28;20043;-68
2023/10/31 05:30:47;;;;;;;8.98;2.50;;;10.20;99.90;;;;;;5067363;28;20043;-70
2023/10/31 05:33:16;;;;;;;7.65;2.53;;;10.40;99.90;;;;;;5065211;28;20055;-67
2023/10/31 05:35:42;;;;;;;10.10;2.97;;;10.00;99.90;;;;;;5067085;28;20044;-72
2023/10/31 05:38:08;;;;;;;8.50;2.50;;;10.40;99.90;;;;;;5066807;28;20040;-67
2023/10/31 05:40:35;;;;;;;13.43;2.20;;;9.80;99.90;;;;;;5065443;28;20040;-68
2023/10/31 05:43:04;;;;;;;8.23;2.13;;;10.40;99.90;;;;;;5066136;28;20075;-67
2023/10/31 05:45:30;;;;;;;11.40;2.47;;;9.80;99.90;;;;;;5066342;28;20991;-71
2023/10/31 05:47:56;;;;;;;7.28;1.20;;;9.90;99.90;;;;;;5065726;28;20069;-68
2023/10/31 05:50:22;;;;;;;10.07;1.90;;;10.30;99.90;;;;;;5067089;28;20097;-68
2023/10/31 05:52:48;;;;;;;8.27;1.90;;;9.90;99.90;;;;;;5065607;28;20048;-69
2023/10/31 05:55:14;;;;;;;6.88;1.98;;;10.30;99.90;;;;;;5065842;28;20131;-67
2023/10/31 05:57:39;;;;;;;5.88;1.17;;;9.70;99.90;;;;;;5066275;28;20498;-68
2023/10/31 06:00:07;;;;;;;6.15;1.20;;;10.20;99.90;;;;;;5065656;28;20055;-68
2023/10/31 06:02:33;;;;;;;5.93;1.40;;;9.70;99.90;;;;;;5066655;28;20059;-70
2023/10/31 06:04:59;;;;;;;5.97;1.38;;;10.20;99.90;;;;;;5064325;28;20039;-67
2023/10/31 06:07:24;;;;;;;5.80;1.95;;;10.30;99.90;;;;;;5064745;28;20040;-67
2023/10/31 06:09:50;;;;;;;7.68;2.63;;;9.80;99.90;;;;;;5067083;28;20048;-67
2023/10/31 06:12:16;;;;;;;6.32;2.70;;;9.90;99.90;;;;;;5065754;28;20047;-70
2023/10/31 06:14:41;;;;;;;10.13;3.25;;;10.40;99.90;;;;;;5065937;28;20560;-68
2023/10/31 06:17:07;;;;;;;5.10;2.83;;;10.10;99.90;;;;;;5065761;28;20051;-68
2023/10/31 06:19:37;;;;;;;6.13;2.90;;;10.20;99.90;;;;;;5065452;28;20387;-70
2023/10/31 06:22:03;;;;;;;6.90;2.95;;;9.80;99.90;;;;;;5065596;28;20048;-70
2023/10/31 06:24:29;;;;;;;8.15;3.35;;;9.90;99.90;;;;;;5067637;28;20056;-68
2023/10/31 06:26:54;;;;;;;6.40;3.22;;;10.50;99.90;;;;;;5066479;28;20138;-69
2023/10/31 06:29:20;;;;;;;6.70;3.03;;;10.00;99.90;;;;;;5067320;28;20048;-68
2023/10/31 06:31:45;;;;;;;7.20;3.08;;;9.90;99.90;;;;;;5048976;28;20044;-69
2023/10/31 06:34:11;;;;;;;5.97;3.22;;;10.50;99.90;;;;;;5048752;28;20102;-69
2023/10/31 06:36:37;;;;;;;5.38;3.33;;;10.50;99.90;;;;;;5065783;28;20305;-68
2023/10/31 06:39:02;;;;;;;7.78;3.30;;;10.60;99.90;;;;;;5049212;28;20079;-68
2023/10/31 06:41:28;;;;;;;5.10;3.35;;;10.60;99.90;;;;;;5070706;28;20050;-67
2023/10/31 06:43:54;;;;;;;5.47;3.20;;;10.00;99.90;;;;;;5069642;28;20699;-70
2023/10/31 06:46:20;;;;;;;5.55;2.92;;;10.00;99.90;;;;;;5070878;28;20070;-69
2023/10/31 06:48:45;;;;;;;5.95;3.35;;;10.60;99.90;;;;;;5069628;28;20044;-68
2023/10/31 06:51:11;;;;;;;5.75;3.10;;;10.00;99.90;;;;;;5053134;28;20032;-67
2023/10/31 06:53:37;;;;;;;4.03;2.53;;;10.00;99.90;;;;;;5069417;28;20074;-68
2023/10/31 06:56:03;;;;;;;4.75;2.17;;;10.00;99.90;;;;;;5069873;28;20039;-68
2023/10/31 06:58:28;;;;;;;7.82;3.42;;;10.00;99.90;;;;;;5069475;28;20556;-67
2023/10/31 07:00:55;;;;;;;6.50;3.05;;;10.20;99.90;;;;;;5036243;28;20066;-68
2023/10/31 07:03:20;;;;;;;7.20;3.13;;;10.00;99.90;;;;;;5050942;28;20787;-69
2023/10/31 07:05:46;;;;;;;4.43;3.05;;;10.00;99.90;;;;;;5070918;28;20062;-68
2023/10/31 07:08:12;;;;;;;4.97;2.92;;;10.60;99.90;;;;;;5069204;28;20048;-68
2023/10/31 07:10:38;;;;;;;6.97;3.20;;;10.30;99.90;;;;;;5070068;28;20048;-69
2023/10/31 07:13:03;;;;;;;6.68;3.28;;;10.00;99.90;;;;;;5070054;28;20044;-69
2023/10/31 07:15:29;;;;;;;5.43;3.00;;;10.30;99.90;;;;;;5070628;28;20055;-67
2023/10/31 07:17:55;;;;;;;6.95;3.55;;;10.20;99.90;;;;;;5068855;28;20048;-68
2023/10/31 07:20:21;;;;;;;6.30;3.20;;;10.60;99.90;;;;;;5069960;28;20056;-72
2023/10/31 07:22:46;;;;;;;7.05;3.53;;;10.60;99.90;;;;;;5071389;28;20097;-68
2023/10/31 07:25:12;;;;;;;7.63;3.20;;;10.70;99.90;;;;;;5070818;28;20044;-69
2023/10/31 07:27:38;;;;;;;6.32;3.10;;;10.40;99.90;;;;;;5070175;28;20040;-69
2023/10/31 07:30:05;;;;;;;6.47;3.35;;;10.60;99.90;;;;;;5070063;28;20059;-68
2023/10/31 07:32:31;;;;;;;5.20;2.85;;;10.50;99.90;;;;;;5070011;28;20048;-70
2023/10/31 07:34:57;;;;;;;9.43;3.30;;;10.50;99.90;;;;;;5071123;28;20058;-67
2023/10/31 07:37:22;;;;;;;6.20;2.85;;;10.60;99.90;;;;;;5051693;28;20040;-68
2023/10/31 07:39:48;;;;;;;9.65;2.97;;;10.10;99.90;;;;;;5070963;28;20036;-68
2023/10/31 07:42:14;;;;;;;9.00;3.40;;;10.10;99.90;;;;;;5053317;28;20040;-68
2023/10/31 07:44:40;;;;;;;6.40;2.55;;;10.70;99.90;;;;;;5070908;28;20056;-70
2023/10/31 07:47:06;;;;;;;6.75;2.53;;;10.20;99.90;;;;;;5071055;28;20201;-71
2023/10/31 07:49:31;;;;;;;7.30;2.83;;;10.30;99.90;;;;;;5071062;28;20145;-68
2023/10/31 07:51:57;;;;;;;6.22;2.10;;;10.40;99.90;;;;;;5069891;28;20045;-68
2023/10/31 07:54:23;;;;;;;5.80;2.40;;;10.40;99.90;;;;;;5069616;28;20055;-68
2023/10/31 07:56:49;;;;;;;7.53;1.90;;;10.70;99.90;;;;;;5069520;28;20048;-68
2023/10/31 07:59:14;;;;;;;7.13;2.33;;;10.80;99.90;;;;;;5070552;28;20135;-69
2023/10/31 08:01:40;;;;;;;5.88;1.67;;;10.60;99.90;;;;;;5069263;28;20353;-69
2023/10/31 08:04:06;;;;;;;6.60;2.13;;;10.40;99.90;;;;;;5052040;28;20051;-67
2023/10/31 08:06:31;;;;;;;6.97;1.90;;;10.50;99.90;;;;;;5071240;28;20035;-68
2023/10/31 08:08:57;;;;;;;6.63;1.85;;;10.90;99.90;;;;;;5070939;28;20302;-69
2023/10/31 08:11:23;;;;;;;7.80;1.73;;;10.50;99.90;;;;;;5068818;28;20052;-68
2023/10/31 08:13:49;;;;;;;11.25;1.58;;;10.50;99.90;;;;;;5068044;28;20184;-69
2023/10/31 08:16:19;;;;;;;8.00;1.55;;;11.00;99.90;;;;;;5051910;28;20044;-67
2023/10/31 08:18:45;;;;;;;6.35;1.40;;;10.70;99.90;;;;;;5069348;28;20048;-70
2023/10/31 08:21:12;;;;;;;7.10;1.45;;;11.10;99.90;;;;;;5069460;28;20101;-68
2023/10/31 08:23:38;;;;;;;7.22;1.83;;;11.10;99.90;;;;;;5069833;28;20126;-70
2023/10/31 08:26:03;;;;;;;6.47;1.92;;;10.50;99.90;;;;;;5069757;28;20132;-68
2023/10/31 08:28:30;;;;;;;6.97;1.70;;;11.20;99.90;;;;;;5069078;28;20073;-67
2023/10/31 08:30:57;;;;;;;4.97;1.45;;;10.80;99.90;;;;;;5069355;28;20051;-68
2023/10/31 08:33:23;;;;;;;9.80;1.63;;;10.80;99.90;;;;;;5068454;28;20039;-67
2023/10/31 08:35:49;;;;;;;6.43;1.58;;;11.30;99.90;;;;;;5068514;28;20098;-71
2023/10/31 08:38:14;;;;;;;6.60;1.10;;;10.80;99.90;;;;;;5067687;28;20051;-67
2023/10/31 08:40:41;;;;;;;7.45;1.42;;;11.30;99.90;;;;;;5067916;28;20056;-68
2023/10/31 08:43:06;;;;;;;6.57;1.40;;;10.90;99.90;;;;;;5069044;28;20055;-67
2023/10/31 08:45:33;;;;;;;4.97;1.10;;;11.20;99.90;;;;;;5068712;28;20979;-68
2023/10/31 08:48:00;;;;;;;4.93;0.80;;;11.20;99.90;;;;;;5069037;28;20109;-68
2023/10/31 08:50:25;;;;;;;8.40;0.80;;;11.30;99.90;;;;;;5070787;28;20551;-68
2023/10/31 08:52:51;;;;;;;5.63;0.50;;;11.10;99.90;;;;;;5070437;28;20048;-68
2023/10/31 08:55:17;;;;;;;6.35;0.52;;;11.40;99.90;;;;;;5071147;28;20048;-68
2023/10/31 08:57:43;;;;;;;6.68;0.50;;;11.30;99.90;;;;;;5070882;28;20051;-67
2023/10/31 09:00:09;;;;;;;6.28;0.45;;;11.30;99.90;;;;;;5070762;28;20380;-67
2023/10/31 09:02:35;;;;;;;7.30;0.47;;;11.60;99.90;;;;;;5061466;28;20525;-69
2023/10/31 09:05:01;;;;;;;3.65;0.40;;;11.60;99.90;;;;;;5068266;28;20044;-68
2023/10/31 09:07:27;;;;;;;10.57;0.30;;;11.60;99.90;;;;;;5066747;28;20043;-69
2023/10/31 09:09:53;;;;;;;19.15;0.70;;;11.30;99.90;;;;;;5069715;28;20036;-69
2023/10/31 09:12:18;;;;;;;14.93;0.80;;;11.10;99.90;;;;;;5070416;28;20036;-68
2023/10/31 09:14:44;;;;;;;11.55;0.70;;;11.30;99.90;;;;;;5069794;28;20109;-70
2023/10/31 09:17:10;;;;;;;9.75;0.98;;;11.00;99.90;;;;;;5045555;28;20374;-68
2023/10/31 09:19:35;;;;;;;15.30;0.80;;;10.90;99.90;;;;;;5067723;28;20448;-66
2023/10/31 09:22:01;;;;;;;8.98;0.38;;;11.10;99.90;;;;;;5066360;28;20357;-71
2023/10/31 09:24:28;;;;;;;16.58;0.80;;;11.00;99.90;;;;;;5066889;28;20336;-68
2023/10/31 09:26:54;;;;;;;8.25;0.30;;;11.20;99.90;;;;;;5069846;28;20071;-68
2023/10/31 09:29:20;;;;;;;6.72;0.43;;;11.10;99.90;;;;;;5069315;28;20511;-71
2023/10/31 09:31:47;;;;;;;14.50;1.00;;;11.10;99.90;;;;;;5069311;28;20051;-72
2023/10/31 09:34:13;;;;;;;8.68;0.70;;;11.20;99.90;;;;;;5067312;28;20102;-69
2023/10/31 09:36:39;;;;;;;9.55;0.60;;;11.30;99.90;;;;;;5068929;28;20369;-67
2023/10/31 09:39:05;;;;;;;11.07;1.02;;;11.40;99.90;;;;;;5068771;28;20055;-70
2023/10/31 09:41:34;;;;;;;17.13;0.90;;;11.40;99.90;;;;;;5069293;28;20508;-70
2023/10/31 09:44:00;;;;;;;13.32;0.68;;;11.60;99.90;;;;;;5067334;28;20050;-69
2023/10/31 09:46:28;;;;;;;7.18;0.30;;;11.50;99.90;;;;;;5068336;28;20338;-71
2023/10/31 09:48:55;;;;;;;11.02;0.60;;;11.40;99.90;;;;;;5068617;28;20136;-68
2023/10/31 09:51:21;;;;;;;4.35;0.20;;;11.50;99.90;;;;;;5068476;28;20542;-67
2023/10/31 09:53:47;;;;;;;8.85;0.40;;;11.50;99.90;;;;;;5068556;28;20085;-68
2023/10/31 09:56:14;;;;;;;7.18;0.30;;;11.40;99.90;;;;;;5067496;28;20051;-69
2023/10/31 09:58:41;;;;;;;4.05;0.20;;;11.40;99.90;;;;;;5068277;28;20490;-71
2023/10/31 10:01:07;;;;;;;3.20;0.20;;;11.40;99.90;;;;;;5066495;28;20452;-72
2023/10/31 10:03:33;;;;;;;6.05;0.30;;;11.50;99.90;;;;;;5042270;28;20052;-71
2023/10/31 10:05:59;;;;;;;10.43;0.52;;;11.50;99.90;;;;;;5068013;28;20048;-70
2023/10/31 10:08:24;;;;;;;6.93;0.40;;;11.60;99.90;;;;;;5069047;28;20498;-67
2023/10/31 10:10:51;;;;;;;6.22;0.32;;;11.50;99.90;;;;;;5067057;28;20056;-67
2023/10/31 10:13:18;;;;;;;7.18;0.40;;;11.50;99.90;;;;;;5068203;28;20060;-67
2023/10/31 10:15:57;;;;;;;4.63;0.22;;;11.60;99.90;;;;;;5071490;28;20580;-69
2023/10/31 10:18:40;;;;;;;10.07;0.50;;;11.60;99.90;;;;;;5071061;28;20077;-69
2023/10/31 10:21:07;;;;;;;9.05;0.40;;;11.80;99.90;;;;;;5058690;28;20055;-71
2023/10/31 10:23:33;;;;;;;6.32;0.38;;;12.10;99.90;;;;;;5070974;28;20109;-68
2023/10/31 10:26:00;;;;;;;6.75;0.20;;;12.50;99.90;;;;;;5071410;28;20759;-68
2023/10/31 10:28:27;;;;;;;4.72;0.20;;;12.60;99.90;;;;;;5071746;28;20135;-69
2023/10/31 10:30:54;;;;;;;4.72;0.20;;;12.50;99.90;;;;;;5072370;28;20127;-72
2023/10/31 10:33:21;;;;;;;3.05;0.25;;;12.50;99.90;;;;;;5071731;28;20051;-68
2023/10/31 10:35:46;;;;;;;8.15;0.60;;;12.40;99.90;;;;;;5071477;28;20044;-69
2023/10/31 10:38:16;;;;;;;6.15;0.22;;;12.20;99.90;;;;;;5070374;28;20063;-71
2023/10/31 10:40:47;;;;;;;4.50;0.20;;;12.10;99.90;;;;;;5070144;28;20138;-68
2023/10/31 10:43:22;;;;;;;5.38;0.40;;;11.90;99.90;;;;;;5071833;28;20710;-68
2023/10/31 10:45:57;;;;;;;7.13;0.30;;;11.80;99.90;;;;;;5060010;28;20047;-72
2023/10/31 10:48:27;;;;;;;6.28;0.28;;;11.70;99.90;;;;;;5071453;28;20070;-72
2023/10/31 10:51:11;;;;;;;8.65;0.73;;;11.90;99.90;;;;;;5071785;28;20043;-69
2023/10/31 10:53:55;;;;;;;7.32;0.35;;;12.90;99.90;;;;;;5071442;28;20578;-69
2023/10/31 10:56:46;;;;;;;3.20;0.28;;;13.90;99.90;;;;;;5053202;28;20311;-70
2023/10/31 10:59:20;;;;;;;5.32;0.30;;;14.00;99.90;;;;;;5071507;28;20496;-69
2023/10/31 11:01:48;;;;;;;6.10;0.30;;;14.80;99.90;;;;;;5052927;28;20070;-68
2023/10/31 11:04:15;;;;;;;6.75;0.40;;;15.20;99.90;;;;;;5070577;28;20258;-68
2023/10/31 11:06:42;;;;;;;6.15;0.40;;;15.50;99.90;;;;;;5069239;28;20522;-68
2023/10/31 11:09:10;;;;;;;8.20;0.40;;;15.80;99.90;;;;;;5071552;28;20059;-68
2023/10/31 11:11:37;;;;;;;9.82;0.70;;;16.30;99.90;;;;;;5070934;28;20071;-71
2023/10/31 11:14:03;;;;;;;11.60;0.40;;;16.90;99.90;;;;;;5071176;28;20047;-68
2023/10/31 11:16:37;;;;;;;8.48;0.60;;;17.20;99.90;;;;;;5071322;28;20062;-68
2023/10/31 11:19:03;;;;;;;5.75;0.50;;;17.60;99.90;;;;;;5070904;28;20047;-70
2023/10/31 11:21:29;;;;;;;6.75;0.60;;;17.40;99.90;;;;;;5071034;28;20090;-71
2023/10/31 11:23:59;;;;;;;5.05;0.30;;;17.20;99.90;;;;;;5070432;28;20060;-69
2023/10/31 11:26:32;;;;;;;6.75;0.45;;;16.90;99.90;;;;;;5070075;28;20056;-71
2023/10/31 11:29:08;;;;;;;8.40;0.40;;;17.10;99.90;;;;;;5069237;28;20543;-70
2023/10/31 11:31:37;;;;;;;6.65;0.60;;;17.10;99.90;;;;;;5071053;28;20197;-68
2023/10/31 11:34:02;;;;;;;11.00;0.80;;;17.10;99.90;;;;;;5070773;28;20555;-69
2023/10/31 11:36:34;;;;;;;6.40;0.50;;;16.90;99.90;;;;;;5070449;28;20055;-72
2023/10/31 11:39:15;;;;;;;9.40;0.40;;;16.10;99.90;;;;;;5070071;28;20051;-69
2023/10/31 11:41:49;;;;;;;10.50;0.60;;;15.20;99.90;;;;;;5069282;28;20064;-69
2023/10/31 11:44:16;;;;;;;6.45;0.50;;;14.70;99.90;;;;;;5070396;28;20052;-70
2023/10/31 11:46:42;;;;;;;5.25;0.40;;;14.50;99.90;;;;;;5070700;28;20086;-69
2023/10/31 11:49:07;;;;;;;5.22;0.40;;;14.80;99.90;;;;;;5070455;28;20135;-68
2023/10/31 11:51:33;;;;;;;9.23;0.40;;;14.70;99.90;;;;;;5069035;28;20565;-68
2023/10/31 11:54:01;;;;;;;12.38;0.88;;;14.60;99.90;;;;;;5070917;28;20052;-69
2023/10/31 11:56:27;;;;;;;11.35;0.60;;;14.10;99.90;;;;;;5071058;28;20559;-70
2023/10/31 11:58:57;;;;;;;10.98;0.57;;;13.60;99.90;;;;;;5070314;28;20044;-68
2023/10/31 12:01:23;;;;;;;9.13;0.65;;;13.40;99.90;;;;;;5070006;28;20115;-68
2023/10/31 12:03:49;;;;;;;7.38;0.47;;;13.20;99.90;;;;;;5070236;28;20044;-68
2023/10/31 12:06:15;;;;;;;10.00;0.60;;;13.20;99.90;;;;;;5068907;28;20063;-75
2023/10/31 12:08:43;;;;;;;10.30;0.60;;;13.50;99.90;;;;;;5070431;28;20087;-69
2023/10/31 12:11:17;;;;;;;11.38;0.50;;;13.80;99.90;;;;;;5070891;28;20599;-68
2023/10/31 12:13:58;;;;;;;7.82;0.63;;;13.60;99.90;;;;;;5070015;28;20494;-70
2023/10/31 12:16:25;;;;;;;10.10;0.40;;;13.50;99.90;;;;;;5070176;28;20087;-68
2023/10/31 12:18:59;;;;;;;10.10;0.68;;;13.60;99.90;;;;;;5070429;28;20113;-69
2023/10/31 12:21:42;;;;;;;9.50;0.50;;;13.50;99.90;;;;;;5069816;28;20052;-69
2023/10/31 12:24:13;;;;;;;7.25;0.43;;;13.30;99.90;;;;;;5068830;28;20052;-69
2023/10/31 12:26:40;;;;;;;7.95;0.40;;;13.00;99.90;;;;;;5069392;28;20044;-69
2023/10/31 12:29:19;;;;;;;9.77;0.50;;;12.80;99.90;;;;;;5056953;28;20557;-69
2023/10/31 12:31:53;;;;;;;8.13;0.40;;;12.70;99.90;;;;;;5070994;28;20044;-71
2023/10/31 12:34:20;;;;;;;6.90;0.40;;;12.60;99.90;;;;;;5054238;28;20048;-67
2023/10/31 12:36:48;;;;;;;9.50;0.60;;;12.50;99.90;;;;;;5070035;28;20121;-70
2023/10/31 12:39:16;;;;;;;7.28;0.55;;;12.40;99.90;;;;;;5071077;28;20443;-69
2023/10/31 12:41:43;;;;;;;5.95;0.40;;;12.30;99.90;;;;;;5072443;28;20048;-70